Time;durP1;ratioP1;P1;durP2;ratioP2;P2;SDS_P1;SDS_P2;PMS_P1;PMS_P2;Temp;Humidity;BMP_temperature;BMP_pressure;BME280_temperature;BME280_humidity;BME280_pressure;Samples;Min_cycle;Max_cycle;Signal;HPM_P1;HPM_P2
2021/10/30 00:00:15;;;;;;;1.90;0.82;;;11.90;99.90;;;;;;4988598;28;20493;-88
2021/10/30 00:02:41;;;;;;;2.13;0.80;;;11.80;99.90;;;;;;4972948;28;20040;-87
2021/10/30 00:05:10;;;;;;;2.38;0.98;;;11.90;99.90;;;;;;4972979;28;20062;-84
2021/10/30 00:07:37;;;;;;;5.22;0.98;;;11.90;99.90;;;;;;4972085;28;20038;-85
2021/10/30 00:10:04;;;;;;;2.47;0.93;;;11.90;99.90;;;;;;4972199;28;20034;-84
2021/10/30 00:12:30;;;;;;;3.25;1.20;;;11.80;99.90;;;;;;4974128;28;20064;-85
2021/10/30 00:14:55;;;;;;;2.65;1.17;;;11.80;99.90;;;;;;4973702;28;20050;-82
2021/10/30 00:17:21;;;;;;;2.00;1.13;;;11.80;99.90;;;;;;4991098;28;20027;-82
2021/10/30 00:19:47;;;;;;;2.70;0.98;;;11.70;99.90;;;;;;4973217;28;20042;-87
2021/10/30 00:22:13;;;;;;;1.92;0.85;;;11.70;99.90;;;;;;4972949;28;20045;-87
2021/10/30 00:24:38;;;;;;;3.10;1.23;;;11.70;99.90;;;;;;5017501;28;20045;-86
2021/10/30 00:27:05;;;;;;;3.15;0.80;;;11.70;99.90;;;;;;5029117;28;20048;-83
2021/10/30 00:29:32;;;;;;;2.10;1.00;;;11.70;99.90;;;;;;5013297;28;20496;-82
2021/10/30 00:31:58;;;;;;;3.75;1.27;;;11.70;99.90;;;;;;5013931;28;20029;-87
2021/10/30 00:34:23;;;;;;;3.72;0.98;;;11.60;99.90;;;;;;5012071;28;20053;-83
2021/10/30 00:36:50;;;;;;;2.15;1.17;;;11.60;99.90;;;;;;5028496;28;20036;-88
2021/10/30 00:39:17;;;;;;;2.70;1.05;;;11.60;99.90;;;;;;5011321;28;20034;-85
2021/10/30 00:41:47;;;;;;;2.03;1.10;;;11.60;99.90;;;;;;5013295;28;20069;-83
2021/10/30 00:44:14;;;;;;;1.73;0.90;;;11.60;99.90;;;;;;5011569;28;20033;-86
2021/10/30 00:46:43;;;;;;;2.30;1.10;;;11.50;99.90;;;;;;5029364;28;20033;-83
2021/10/30 00:49:13;;;;;;;2.60;1.50;;;11.50;99.90;;;;;;5030112;28;20060;-85
2021/10/30 00:51:41;;;;;;;3.13;1.27;;;11.50;99.90;;;;;;5016500;28;20057;-86
2021/10/30 00:54:08;;;;;;;2.83;1.70;;;11.50;99.90;;;;;;5014931;28;20034;-86
2021/10/30 00:56:36;;;;;;;2.53;1.33;;;11.40;99.90;;;;;;5012689;28;20040;-83
2021/10/30 00:59:04;;;;;;;2.88;1.75;;;11.40;99.90;;;;;;5014874;28;20045;-87
2021/10/30 01:01:30;;;;;;;4.18;1.50;;;11.40;99.90;;;;;;5014415;28;20041;-83
2021/10/30 01:03:58;;;;;;;3.08;1.65;;;11.40;99.90;;;;;;5013119;28;20041;-89
2021/10/30 01:06:24;;;;;;;3.13;1.88;;;11.40;99.90;;;;;;5013542;28;20370;-85
2021/10/30 01:08:55;;;;;;;2.88;1.77;;;11.30;99.90;;;;;;4997385;28;20061;-85
2021/10/30 01:11:21;;;;;;;3.25;2.05;;;11.30;99.90;;;;;;5014677;28;20109;-81
2021/10/30 01:13:48;;;;;;;3.30;1.63;;;11.40;99.90;;;;;;5013792;28;20105;-82
2021/10/30 01:16:14;;;;;;;3.25;2.22;;;11.30;99.90;;;;;;5013412;28;20042;-82
2021/10/30 01:18:39;;;;;;;2.50;1.13;;;11.30;99.90;;;;;;5014867;28;20077;-82
2021/10/30 01:21:05;;;;;;;3.75;2.60;;;11.30;99.90;;;;;;4997882;28;20030;-82
2021/10/30 01:23:31;;;;;;;2.90;2.25;;;11.30;99.90;;;;;;5014990;28;20402;-82
2021/10/30 01:26:02;;;;;;;4.22;1.98;;;11.30;99.90;;;;;;5015369;28;20038;-82
2021/10/30 01:28:30;;;;;;;2.55;1.88;;;11.20;99.90;;;;;;4997339;28;20045;-87
2021/10/30 01:30:56;;;;;;;2.80;1.73;;;11.20;99.90;;;;;;4995338;28;20036;-84
2021/10/30 01:33:22;;;;;;;4.50;2.00;;;11.30;99.90;;;;;;4995426;28;20098;-83
2021/10/30 01:35:48;;;;;;;2.70;1.58;;;11.30;99.90;;;;;;5011384;28;20041;-83
2021/10/30 01:38:14;;;;;;;3.00;1.70;;;11.30;99.90;;;;;;5011228;28;20026;-84
2021/10/30 01:40:45;;;;;;;3.83;1.70;;;11.40;99.90;;;;;;5018891;28;20040;-82
2021/10/30 01:43:12;;;;;;;3.10;1.40;;;11.20;99.90;;;;;;5030539;28;20036;-83
2021/10/30 01:45:40;;;;;;;3.28;1.63;;;11.10;99.90;;;;;;5030316;28;20040;-84
2021/10/30 01:48:06;;;;;;;1.92;1.33;;;11.10;99.90;;;;;;5014156;28;20045;-89
2021/10/30 01:50:32;;;;;;;2.60;0.95;;;11.10;99.90;;;;;;5030452;28;20386;-89
2021/10/30 01:53:00;;;;;;;2.30;1.13;;;11.00;99.90;;;;;;5014095;28;20033;-86
2021/10/30 01:55:27;;;;;;;3.75;1.08;;;11.00;99.90;;;;;;5030321;28;20059;-86
2021/10/30 01:57:52;;;;;;;2.70;1.40;;;11.00;99.90;;;;;;5014052;28;20160;-84
2021/10/30 02:00:19;;;;;;;2.70;1.00;;;11.00;99.90;;;;;;5013291;28;20033;-82
2021/10/30 02:02:44;;;;;;;3.58;1.10;;;11.00;99.90;;;;;;5013704;28;20045;-87
2021/10/30 02:05:11;;;;;;;2.72;1.40;;;10.90;99.90;;;;;;5013697;28;20029;-86
2021/10/30 02:07:38;;;;;;;2.70;1.52;;;11.00;99.90;;;;;;5013685;28;20049;-83
2021/10/30 02:10:05;;;;;;;4.18;1.40;;;11.00;99.90;;;;;;5029997;28;20045;-86
2021/10/30 02:12:30;;;;;;;2.55;1.17;;;11.00;99.90;;;;;;5048036;28;20030;-82
2021/10/30 02:14:56;;;;;;;2.97;1.45;;;11.10;99.90;;;;;;5013608;28;20402;-83
2021/10/30 02:17:22;;;;;;;3.17;1.63;;;11.10;99.90;;;;;;5029744;28;20034;-83
2021/10/30 02:19:48;;;;;;;3.17;0.98;;;11.00;99.90;;;;;;5029859;28;20026;-84
2021/10/30 02:22:14;;;;;;;2.97;1.23;;;11.10;99.90;;;;;;5029660;28;20057;-85
2021/10/30 02:24:40;;;;;;;1.40;0.70;;;11.10;99.90;;;;;;5030042;28;20048;-82
2021/10/30 02:27:06;;;;;;;3.92;1.00;;;11.20;99.90;;;;;;5013349;28;20493;-83
2021/10/30 02:29:32;;;;;;;3.28;1.38;;;11.20;99.90;;;;;;5029846;28;20021;-84
2021/10/30 02:31:57;;;;;;;2.88;1.10;;;11.30;99.90;;;;;;5013066;28;20056;-82
2021/10/30 02:34:23;;;;;;;3.10;1.10;;;11.30;99.90;;;;;;5029565;28;20033;-83
2021/10/30 02:36:48;;;;;;;3.10;1.25;;;11.30;99.90;;;;;;5013419;28;20025;-83
2021/10/30 02:39:14;;;;;;;2.70;1.05;;;11.30;99.90;;;;;;5047301;28;20099;-87
2021/10/30 02:41:40;;;;;;;2.67;1.38;;;11.40;99.90;;;;;;5026125;28;20033;-89
2021/10/30 02:44:06;;;;;;;2.33;1.05;;;11.20;99.90;;;;;;5009711;28;20038;-86
2021/10/30 02:46:32;;;;;;;2.78;1.27;;;11.40;99.90;;;;;;4993279;28;20105;-85
2021/10/30 02:48:58;;;;;;;3.13;1.27;;;11.30;99.90;;;;;;5009759;28;20070;-83
2021/10/30 02:51:24;;;;;;;3.45;1.80;;;11.40;99.90;;;;;;5009478;28;20057;-84
2021/10/30 02:53:50;;;;;;;3.35;1.15;;;11.40;99.90;;;;;;5024674;28;20079;-87
2021/10/30 02:56:16;;;;;;;2.78;1.67;;;11.40;99.90;;;;;;5012977;28;20065;-90
2021/10/30 02:58:41;;;;;;;3.67;1.58;;;11.40;99.90;;;;;;5013101;28;20034;-84
2021/10/30 03:01:07;;;;;;;2.70;1.55;;;11.40;99.90;;;;;;5012690;28;20044;-82
2021/10/30 03:03:33;;;;;;;3.10;1.65;;;11.40;99.90;;;;;;5013073;28;20069;-83
2021/10/30 03:05:59;;;;;;;4.47;2.53;;;11.50;99.90;;;;;;5012610;28;20037;-85
2021/10/30 03:08:24;;;;;;;5.20;1.60;;;11.50;99.90;;;;;;5012944;28;20059;-86
2021/10/30 03:10:50;;;;;;;4.57;1.95;;;11.50;99.90;;;;;;5012842;28;20029;-84
2021/10/30 03:13:16;;;;;;;4.85;2.58;;;11.50;99.90;;;;;;5012638;28;20041;-85
2021/10/30 03:15:41;;;;;;;5.55;2.63;;;11.50;99.90;;;;;;5028924;28;20051;-83
2021/10/30 03:18:07;;;;;;;6.40;3.15;;;11.50;99.90;;;;;;5012644;28;20030;-82
2021/10/30 03:20:33;;;;;;;5.78;3.55;;;11.60;99.90;;;;;;5029155;28;20033;-86
2021/10/30 03:22:59;;;;;;;4.75;3.88;;;11.50;99.90;;;;;;5012761;28;20029;-83
2021/10/30 03:25:25;;;;;;;4.10;3.15;;;11.50;99.90;;;;;;5013147;28;20029;-82
2021/10/30 03:27:51;;;;;;;6.50;3.97;;;11.50;99.90;;;;;;5012800;28;20037;-83
2021/10/30 03:30:17;;;;;;;6.78;4.80;;;11.50;99.90;;;;;;5012880;28;20485;-84
2021/10/30 03:32:42;;;;;;;7.22;4.53;;;11.40;99.90;;;;;;5028674;28;20047;-84
2021/10/30 03:35:08;;;;;;;6.57;4.22;;;11.40;99.90;;;;;;5012623;28;20060;-85
2021/10/30 03:37:34;;;;;;;6.53;4.30;;;11.40;99.90;;;;;;5046714;28;20031;-83
2021/10/30 03:40:05;;;;;;;6.35;4.30;;;11.40;99.90;;;;;;5029250;28;20033;-82
2021/10/30 03:42:31;;;;;;;5.63;4.28;;;11.40;99.90;;;;;;5029412;28;20053;-87
2021/10/30 03:44:57;;;;;;;9.15;4.72;;;11.30;99.90;;;;;;5029316;28;20366;-85
2021/10/30 03:47:23;;;;;;;6.78;4.47;;;11.30;99.90;;;;;;5025830;23;20084;-85
2021/10/30 03:49:48;;;;;;;8.88;4.82;;;11.30;99.90;;;;;;5027074;28;20033;-85
2021/10/30 03:52:14;;;;;;;7.88;4.93;;;11.40;99.90;;;;;;5026970;28;20034;-85
2021/10/30 03:54:40;;;;;;;10.73;5.57;;;11.40;99.90;;;;;;5028139;28;20032;-89
2021/10/30 03:57:06;;;;;;;7.88;5.43;;;11.30;99.90;;;;;;4993892;28;20064;-91
2021/10/30 03:59:33;;;;;;;10.73;5.55;;;11.40;99.90;;;;;;5012427;28;20028;-82
2021/10/30 04:02:02;;;;;;;9.40;5.18;;;11.30;99.90;;;;;;5014051;28;20021;-84
2021/10/30 04:04:28;;;;;;;9.13;4.82;;;11.30;99.90;;;;;;4997526;28;20033;-85
2021/10/30 04:06:53;;;;;;;7.90;4.45;;;11.30;99.90;;;;;;5028406;28;20511;-88
2021/10/30 04:09:20;;;;;;;12.68;5.07;;;11.30;99.90;;;;;;4995170;28;20117;-84
2021/10/30 04:11:46;;;;;;;8.82;5.25;;;11.30;99.90;;;;;;4995709;28;20026;-87
2021/10/30 04:14:12;;;;;;;8.77;4.57;;;11.20;99.90;;;;;;5012152;28;20527;-83
2021/10/30 04:16:38;;;;;;;8.00;4.65;;;11.30;99.90;;;;;;5014119;28;20037;-82
2021/10/30 04:19:04;;;;;;;6.63;3.90;;;11.20;99.90;;;;;;4996728;28;20037;-85
2021/10/30 04:21:30;;;;;;;9.05;4.80;;;11.20;99.90;;;;;;4995610;28;20127;-86
2021/10/30 04:23:58;;;;;;;10.90;4.72;;;11.20;99.90;;;;;;5012952;28;20128;-88
2021/10/30 04:26:25;;;;;;;7.95;5.13;;;11.20;99.90;;;;;;4996817;28;20025;-90
2021/10/30 04:28:50;;;;;;;8.73;5.38;;;11.20;99.90;;;;;;5030197;28;20034;-83
2021/10/30 04:31:24;;;;;;;8.93;5.40;;;11.20;99.90;;;;;;5014807;28;20036;-82
2021/10/30 04:33:53;;;;;;;12.90;5.72;;;11.30;99.90;;;;;;5013921;28;20387;-90
2021/10/30 04:36:19;;;;;;;10.70;5.63;;;11.30;99.90;;;;;;4997209;28;20033;-88
2021/10/30 04:38:46;;;;;;;9.02;5.35;;;11.30;99.90;;;;;;4996195;28;20038;-90
2021/10/30 04:41:12;;;;;;;7.55;4.78;;;11.20;99.90;;;;;;5022121;28;20036;-93
2021/10/30 04:43:39;;;;;;;8.07;5.50;;;11.30;99.90;;;;;;5014647;28;20029;-85
2021/10/30 04:46:08;;;;;;;8.15;5.30;;;11.20;99.90;;;;;;5014187;28;20034;-88
2021/10/30 04:48:34;;;;;;;8.93;5.43;;;11.30;99.90;;;;;;5047432;28;20033;-83
2021/10/30 04:51:00;;;;;;;8.43;4.72;;;11.30;99.90;;;;;;5032000;28;20041;-82
2021/10/30 04:53:26;;;;;;;8.10;4.55;;;11.30;99.90;;;;;;5014224;28;20034;-90
2021/10/30 04:55:52;;;;;;;6.75;3.58;;;11.20;99.90;;;;;;5032641;28;20121;-82
2021/10/30 04:58:18;;;;;;;6.38;4.15;;;11.20;99.90;;;;;;5030747;28;20525;-92
2021/10/30 05:00:44;;;;;;;5.75;3.83;;;11.30;99.90;;;;;;5028697;28;20053;-85
2021/10/30 05:03:10;;;;;;;6.45;3.85;;;11.20;99.90;;;;;;5028792;28;20105;-89
2021/10/30 05:05:35;;;;;;;7.75;4.38;;;11.30;99.90;;;;;;5029570;28;20037;-91
2021/10/30 05:08:01;;;;;;;7.85;4.25;;;11.30;99.90;;;;;;5028783;28;20061;-92
2021/10/30 05:10:26;;;;;;;10.88;4.93;;;11.30;99.90;;;;;;5029265;28;20040;-83
2021/10/30 05:12:52;;;;;;;7.05;4.18;;;11.30;99.90;;;;;;5027779;28;20030;-82
2021/10/30 05:15:18;;;;;;;8.00;4.38;;;11.30;99.90;;;;;;5027824;28;20520;-83
2021/10/30 05:17:44;;;;;;;7.75;4.05;;;11.30;99.90;;;;;;5011531;28;20034;-83
2021/10/30 05:20:10;;;;;;;7.82;4.20;;;11.30;99.90;;;;;;5027970;28;20026;-83
2021/10/30 05:22:36;;;;;;;4.55;3.15;;;11.30;99.90;;;;;;5027469;28;20030;-84
2021/10/30 05:25:02;;;;;;;8.65;2.85;;;11.30;99.90;;;;;;5027704;28;20037;-84
2021/10/30 05:27:28;;;;;;;5.40;3.15;;;11.30;99.90;;;;;;5027589;28;20049;-84
2021/10/30 05:29:54;;;;;;;6.40;3.78;;;11.30;99.90;;;;;;5027681;28;20061;-84
2021/10/30 05:32:19;;;;;;;5.85;3.28;;;11.30;99.90;;;;;;5027469;28;20038;-83
2021/10/30 05:35:14;;;;;;;4.88;2.80;;;11.30;99.90;;;;;;5026922;28;20072;-83
2021/10/30 05:37:59;;;;;;;5.95;2.85;;;11.20;99.90;;;;;;5020672;28;20293;-83
2021/10/30 05:40:25;;;;;;;7.40;3.92;;;11.20;99.90;;;;;;5010930;28;20348;-83
2021/10/30 05:42:51;;;;;;;5.85;3.45;;;11.20;99.90;;;;;;5027259;28;20033;-84
2021/10/30 05:45:38;;;;;;;6.95;3.25;;;11.20;99.90;;;;;;5027170;28;20044;-82
2021/10/30 05:48:06;;;;;;;5.88;3.67;;;11.20;99.90;;;;;;4948040;29;20260;-83
2021/10/30 05:50:32;;;;;;;5.20;3.75;;;11.20;99.90;;;;;;4932528;29;20039;-82
2021/10/30 05:52:58;;;;;;;7.47;3.42;;;11.20;99.90;;;;;;4928950;29;20064;-82
2021/10/30 05:55:23;;;;;;;7.35;3.60;;;11.20;99.90;;;;;;4928951;29;20067;-83
2021/10/30 05:57:49;;;;;;;6.00;3.13;;;11.20;99.90;;;;;;4929206;29;20055;-83
2021/10/30 06:00:14;;;;;;;7.60;3.70;;;11.20;99.90;;;;;;4929228;29;20040;-83
2021/10/30 06:02:40;;;;;;;6.90;2.88;;;11.20;99.90;;;;;;4944978;29;20032;-84
2021/10/30 06:05:06;;;;;;;4.75;3.13;;;11.10;99.90;;;;;;4929019;29;20104;-83
2021/10/30 06:07:32;;;;;;;4.35;2.30;;;11.20;99.90;;;;;;4928967;29;20044;-83
2021/10/30 06:09:58;;;;;;;5.65;3.13;;;11.20;99.90;;;;;;4929361;29;20031;-83
2021/10/30 06:12:24;;;;;;;5.07;2.42;;;11.20;99.90;;;;;;4913571;29;20059;-84
2021/10/30 06:14:49;;;;;;;5.38;2.60;;;11.20;99.90;;;;;;4915816;29;20099;-83
2021/10/30 06:17:15;;;;;;;5.13;2.70;;;11.10;99.90;;;;;;4916076;29;20040;-84
2021/10/30 06:19:41;;;;;;;4.65;2.58;;;11.20;99.90;;;;;;4931838;29;20071;-83
2021/10/30 06:22:07;;;;;;;2.95;1.95;;;11.10;99.90;;;;;;4947738;29;20043;-83
2021/10/30 06:24:32;;;;;;;5.63;2.45;;;11.10;99.90;;;;;;4937023;28;20034;-83
2021/10/30 06:26:59;;;;;;;5.63;2.85;;;11.20;99.90;;;;;;5009827;28;20125;-83
2021/10/30 06:29:28;;;;;;;6.72;4.00;;;11.20;99.90;;;;;;5026364;28;20037;-84
2021/10/30 06:31:54;;;;;;;4.57;2.50;;;11.20;99.90;;;;;;5009862;28;20088;-84
2021/10/30 06:34:20;;;;;;;6.13;3.53;;;11.10;99.90;;;;;;5010231;28;20036;-83
2021/10/30 06:36:46;;;;;;;7.15;3.20;;;11.20;99.90;;;;;;5010353;28;20053;-86
2021/10/30 06:39:11;;;;;;;7.03;2.75;;;11.10;99.90;;;;;;4994060;28;20038;-84
2021/10/30 06:41:37;;;;;;;5.35;3.55;;;11.10;99.90;;;;;;5011404;28;20041;-83
2021/10/30 06:44:05;;;;;;;6.63;3.58;;;11.20;99.90;;;;;;5009366;28;20026;-85
2021/10/30 06:46:31;;;;;;;6.43;3.92;;;11.10;99.90;;;;;;5009339;28;20061;-84
2021/10/30 06:48:57;;;;;;;7.93;3.95;;;11.20;99.90;;;;;;5009835;28;20072;-85
2021/10/30 06:51:24;;;;;;;11.15;5.22;;;11.20;99.90;;;;;;5026033;28;20060;-85
2021/10/30 06:53:50;;;;;;;6.50;3.47;;;11.20;99.90;;;;;;5009829;28;20030;-87
2021/10/30 06:56:16;;;;;;;6.47;3.97;;;11.20;99.90;;;;;;5009086;28;20030;-88
2021/10/30 06:58:42;;;;;;;6.57;5.20;;;11.20;99.90;;;;;;5009169;28;20033;-89
2021/10/30 07:01:08;;;;;;;7.65;4.40;;;11.10;99.90;;;;;;5008950;28;20474;-85
2021/10/30 07:03:35;;;;;;;5.60;3.90;;;11.10;99.90;;;;;;5026054;28;20036;-88
2021/10/30 07:06:00;;;;;;;7.28;4.90;;;11.10;99.90;;;;;;5026067;28;20061;-86
2021/10/30 07:08:26;;;;;;;8.38;4.68;;;11.10;99.90;;;;;;5009544;28;20046;-87
2021/10/30 07:10:54;;;;;;;6.15;4.00;;;11.10;99.90;;;;;;5009653;28;20485;-86
2021/10/30 07:13:20;;;;;;;6.70;3.88;;;11.10;99.90;;;;;;5026089;28;20085;-85
2021/10/30 07:15:47;;;;;;;6.10;4.30;;;11.10;99.90;;;;;;5027245;28;20022;-84
2021/10/30 07:18:13;;;;;;;5.03;3.38;;;11.10;99.90;;;;;;5026074;28;20026;-88
2021/10/30 07:20:39;;;;;;;6.75;3.95;;;11.20;99.90;;;;;;5025719;28;20121;-85
2021/10/30 07:23:04;;;;;;;5.93;3.90;;;11.20;99.90;;;;;;5008657;28;20041;-88
2021/10/30 07:25:30;;;;;;;7.15;3.90;;;11.20;99.90;;;;;;5026406;28;20042;-85
2021/10/30 07:27:56;;;;;;;6.57;2.97;;;11.20;99.90;;;;;;5024742;28;20099;-86
2021/10/30 07:30:22;;;;;;;6.65;3.58;;;11.20;99.90;;;;;;5025040;28;20033;-84
2021/10/30 07:32:54;;;;;;;6.13;3.85;;;11.20;99.90;;;;;;5025469;28;20385;-84
2021/10/30 07:35:24;;;;;;;6.35;3.30;;;11.20;99.90;;;;;;5024526;28;20041;-84
2021/10/30 07:37:51;;;;;;;7.38;3.58;;;11.30;99.90;;;;;;5008126;28;20037;-85
2021/10/30 07:40:17;;;;;;;7.38;3.25;;;11.30;99.90;;;;;;5024215;28;20049;-84
2021/10/30 07:42:43;;;;;;;5.38;2.58;;;11.30;99.90;;;;;;5007539;28;20037;-84
2021/10/30 07:45:30;;;;;;;6.50;3.45;;;11.30;99.90;;;;;;5007620;28;20033;-82
2021/10/30 07:47:57;;;;;;;5.18;3.03;;;11.30;99.90;;;;;;4945156;29;20099;-83
2021/10/30 07:50:23;;;;;;;6.40;2.83;;;11.30;99.90;;;;;;4945264;29;20050;-83
2021/10/30 07:52:49;;;;;;;5.30;3.25;;;11.30;99.90;;;;;;4929404;29;20468;-83
2021/10/30 07:55:15;;;;;;;6.95;3.67;;;11.30;99.90;;;;;;4929661;29;20038;-83
2021/10/30 07:57:40;;;;;;;5.65;2.92;;;11.30;99.90;;;;;;4928884;29;20158;-82
2021/10/30 08:00:08;;;;;;;6.32;3.08;;;11.30;99.90;;;;;;4945255;29;20103;-82
2021/10/30 08:02:39;;;;;;;4.93;3.03;;;11.40;99.90;;;;;;4945203;29;20043;-83
2021/10/30 08:05:07;;;;;;;4.88;2.80;;;11.40;99.90;;;;;;4945294;29;20050;-83
2021/10/30 08:07:33;;;;;;;5.22;3.13;;;11.40;99.90;;;;;;4929082;29;20102;-83
2021/10/30 08:10:00;;;;;;;4.50;2.67;;;11.40;99.90;;;;;;4929276;29;20036;-84
2021/10/30 08:12:26;;;;;;;5.20;3.05;;;11.50;99.90;;;;;;4928566;29;20043;-84
2021/10/30 08:14:51;;;;;;;4.30;2.47;;;11.50;99.90;;;;;;4945515;29;20046;-85
2021/10/30 08:17:17;;;;;;;5.65;2.88;;;11.50;99.90;;;;;;4931637;29;20052;-84
2021/10/30 08:19:43;;;;;;;5.78;3.22;;;11.50;99.90;;;;;;4931764;29;20050;-84
2021/10/30 08:22:08;;;;;;;4.53;2.10;;;11.50;99.90;;;;;;4933485;29;20068;-84
2021/10/30 08:24:34;;;;;;;3.83;2.30;;;11.50;99.90;;;;;;4971826;28;20100;-85
2021/10/30 08:26:59;;;;;;;5.68;2.28;;;11.50;99.90;;;;;;5011068;28;20052;-85
2021/10/30 08:29:25;;;;;;;5.45;3.08;;;11.60;99.90;;;;;;5010129;28;20026;-84
2021/10/30 08:31:52;;;;;;;5.60;2.40;;;11.60;99.90;;;;;;5011353;28;20070;-84
2021/10/30 08:34:18;;;;;;;4.07;2.65;;;11.60;99.90;;;;;;5010650;28;20034;-84
2021/10/30 08:36:46;;;;;;;5.43;1.92;;;11.60;99.90;;;;;;5010587;28;20052;-85
2021/10/30 08:39:12;;;;;;;4.38;2.40;;;11.60;99.90;;;;;;5028342;28;20056;-85
2021/10/30 08:41:38;;;;;;;5.93;2.30;;;11.70;99.90;;;;;;4994638;28;20479;-83
2021/10/30 08:44:05;;;;;;;4.78;2.20;;;11.70;99.90;;;;;;4991444;28;20042;-87
2021/10/30 08:46:31;;;;;;;5.18;2.88;;;11.70;99.90;;;;;;4990311;28;20085;-82
2021/10/30 08:49:01;;;;;;;4.57;2.70;;;11.70;99.90;;;;;;4993302;28;20056;-90
2021/10/30 08:51:29;;;;;;;3.08;1.77;;;11.80;99.90;;;;;;4991454;28;20088;-85
2021/10/30 08:53:55;;;;;;;4.47;1.98;;;11.80;99.90;;;;;;5005747;28;20034;-87
2021/10/30 08:56:22;;;;;;;4.40;1.90;;;11.80;99.90;;;;;;5009517;28;20287;-83
2021/10/30 08:58:48;;;;;;;3.42;1.63;;;11.90;99.90;;;;;;5009815;28;20034;-88
2021/10/30 09:01:14;;;;;;;3.78;1.50;;;11.90;99.90;;;;;;5010514;28;20033;-87
2021/10/30 09:03:41;;;;;;;6.70;1.65;;;11.90;99.90;;;;;;4994045;28;20037;-83
2021/10/30 09:06:07;;;;;;;5.30;1.90;;;12.00;99.90;;;;;;5025543;28;20076;-84
2021/10/30 09:08:34;;;;;;;4.93;2.30;;;12.00;99.90;;;;;;5007502;28;20038;-83
2021/10/30 09:11:05;;;;;;;4.57;2.15;;;12.00;99.90;;;;;;5026156;28;20113;-84
2021/10/30 09:13:31;;;;;;;4.47;2.22;;;12.10;99.90;;;;;;5011526;28;20048;-86
2021/10/30 09:15:59;;;;;;;5.13;1.90;;;12.10;99.90;;;;;;5028600;28;20026;-89
2021/10/30 09:18:26;;;;;;;5.45;2.33;;;12.10;99.90;;;;;;5029050;28;20061;-84
2021/10/30 09:20:53;;;;;;;3.70;2.10;;;12.00;99.90;;;;;;5011627;28;20033;-84
2021/10/30 09:23:20;;;;;;;3.90;1.80;;;12.10;99.90;;;;;;5029304;28;20038;-86
2021/10/30 09:26:14;;;;;;;3.45;1.77;;;12.10;99.90;;;;;;5027857;28;20029;-83
2021/10/30 09:28:49;;;;;;;3.25;1.35;;;12.10;99.90;;;;;;5007384;28;20045;-83
2021/10/30 09:31:17;;;;;;;2.67;1.27;;;12.10;99.90;;;;;;5027455;28;20076;-90
2021/10/30 09:33:56;;;;;;;3.63;1.70;;;12.10;99.90;;;;;;5012002;28;20083;-85
2021/10/30 09:36:27;;;;;;;3.23;1.73;;;12.20;99.90;;;;;;5011130;28;20064;-83
2021/10/30 09:38:55;;;;;;;2.92;1.60;;;12.20;99.90;;;;;;5027183;28;20269;-84
2021/10/30 09:41:32;;;;;;;2.95;1.42;;;12.20;99.90;;;;;;5010174;28;20081;-84
2021/10/30 09:43:59;;;;;;;3.72;1.70;;;12.20;99.90;;;;;;4997358;28;20034;-83
2021/10/30 09:46:28;;;;;;;4.32;1.95;;;12.20;99.90;;;;;;5020579;28;20038;-83
2021/10/30 09:48:55;;;;;;;3.03;2.00;;;12.20;99.90;;;;;;5018532;28;20123;-87
2021/10/30 09:51:51;;;;;;;4.45;2.05;;;12.20;99.90;;;;;;5005192;28;20034;-86
2021/10/30 09:54:45;;;;;;;4.20;2.22;;;12.30;99.90;;;;;;4985595;28;20096;-83
2021/10/30 09:57:30;;;;;;;4.22;2.33;;;12.20;99.90;;;;;;5004899;28;20036;-88
2021/10/30 09:59:58;;;;;;;5.55;2.95;;;12.30;99.90;;;;;;4994689;28;20030;-83
2021/10/30 10:02:26;;;;;;;3.78;2.45;;;12.30;99.90;;;;;;5013507;28;20041;-83
2021/10/30 10:04:52;;;;;;;5.65;1.92;;;12.30;99.90;;;;;;5032751;28;20014;-84
2021/10/30 10:07:25;;;;;;;5.97;2.40;;;12.30;99.90;;;;;;5003704;28;20045;-83
2021/10/30 10:09:56;;;;;;;6.30;2.50;;;12.30;99.90;;;;;;5007581;28;20394;-83
2021/10/30 10:12:22;;;;;;;6.82;2.97;;;12.30;99.90;;;;;;4997166;28;20030;-83
2021/10/30 10:14:49;;;;;;;5.97;2.20;;;12.30;99.90;;;;;;5021322;28;20081;-83
2021/10/30 10:17:16;;;;;;;5.28;2.75;;;12.30;99.90;;;;;;4997623;28;20061;-85
2021/10/30 10:19:42;;;;;;;3.20;1.73;;;12.30;99.90;;;;;;5022678;28;20034;-84
2021/10/30 10:22:09;;;;;;;3.90;1.88;;;12.30;99.90;;;;;;5007309;28;20053;-84
2021/10/30 10:24:37;;;;;;;3.58;2.08;;;12.40;99.90;;;;;;5023403;28;20034;-82
2021/10/30 10:27:05;;;;;;;3.25;2.10;;;12.40;99.90;;;;;;5024116;28;20069;-89
2021/10/30 10:29:34;;;;;;;5.78;1.80;;;12.40;99.90;;;;;;5026874;28;20100;-83
2021/10/30 10:32:03;;;;;;;4.97;1.90;;;12.40;99.90;;;;;;5010107;28;20030;-84
2021/10/30 10:34:34;;;;;;;5.97;2.47;;;12.40;99.90;;;;;;5027964;28;20033;-89
2021/10/30 10:40:48;;;;;;;4.68;2.22;;;12.50;99.90;;;;;;5028733;28;20109;-82
2021/10/30 10:43:43;;;;;;;3.38;1.40;;;12.50;99.90;;;;;;5010417;28;20135;-86
2021/10/30 10:46:08;;;;;;;5.07;1.67;;;12.50;99.90;;;;;;5009960;28;20469;-84
2021/10/30 10:48:41;;;;;;;2.92;1.25;;;12.60;99.90;;;;;;5004318;28;20130;-85
2021/10/30 10:51:21;;;;;;;3.70;1.83;;;12.60;99.90;;;;;;4992173;28;20121;-85
2021/10/30 10:53:57;;;;;;;3.58;1.00;;;12.60;99.90;;;;;;5009628;28;20034;-86
2021/10/30 11:00:16;;;;;;;2.75;1.02;;;12.60;99.90;;;;;;5027356;28;20045;-89
2021/10/30 11:02:48;;;;;;;4.80;1.33;;;12.70;99.90;;;;;;5009484;28;20029;-85
2021/10/30 11:05:23;;;;;;;3.03;1.50;;;12.70;99.90;;;;;;5009731;28;20034;-87
2021/10/30 11:11:37;;;;;;;3.28;1.23;;;12.70;99.90;;;;;;5026552;28;20064;-87
2021/10/30 11:14:04;;;;;;;4.68;1.10;;;12.70;99.90;;;;;;5008958;28;20030;-86
2021/10/30 11:20:19;;;;;;;1.90;0.90;;;12.70;99.90;;;;;;5026564;28;20044;-84
2021/10/30 11:23:00;;;;;;;2.70;1.00;;;12.70;99.90;;;;;;5025047;28;20037;-84
2021/10/30 11:25:30;;;;;;;2.15;0.85;;;12.80;99.90;;;;;;5024986;28;20081;-84
2021/10/30 11:31:50;;;;;;;2.22;0.70;;;12.80;99.90;;;;;;5025771;28;20117;-85
2021/10/30 11:34:15;;;;;;;2.10;0.90;;;12.80;99.90;;;;;;5024190;28;20034;-82
2021/10/30 11:40:55;;;;;;;2.83;0.93;;;12.90;99.90;;;;;;5026167;28;20068;-83
2021/10/30 11:43:23;;;;;;;3.05;1.30;;;13.00;99.90;;;;;;5022015;28;20033;-83
2021/10/30 11:45:49;;;;;;;4.65;0.93;;;13.10;99.90;;;;;;5021667;28;20034;-83
2021/10/30 11:48:16;;;;;;;3.75;0.80;;;13.10;99.90;;;;;;5007250;28;20062;-83
2021/10/30 11:50:54;;;;;;;2.30;0.80;;;13.10;99.90;;;;;;5024307;28;20037;-84
2021/10/30 11:53:21;;;;;;;1.58;0.70;;;13.20;99.90;;;;;;5024491;28;20057;-84
2021/10/30 11:55:54;;;;;;;2.15;0.73;;;13.20;99.90;;;;;;5007798;28;20026;-84
2021/10/30 12:02:17;;;;;;;2.70;0.70;;;13.30;99.90;;;;;;5025461;28;20049;-85
2021/10/30 12:04:43;;;;;;;1.80;0.80;;;13.40;99.90;;;;;;5008074;28;20131;-84
2021/10/30 12:10:57;;;;;;;2.20;0.70;;;13.50;99.90;;;;;;5025671;28;20110;-85
2021/10/30 12:13:23;;;;;;;1.65;0.60;;;13.50;99.90;;;;;;5007621;28;20033;-85
2021/10/30 12:15:50;;;;;;;2.10;0.70;;;13.60;99.90;;;;;;5007615;28;20042;-85
2021/10/30 12:22:04;;;;;;;2.65;0.70;;;13.50;99.90;;;;;;5025302;28;20040;-82
2021/10/30 12:24:30;;;;;;;2.10;0.70;;;13.60;99.90;;;;;;5025349;28;20033;-84
2021/10/30 12:30:43;;;;;;;4.00;0.73;;;13.80;99.90;;;;;;5026665;28;20045;-83
2021/10/30 12:33:11;;;;;;;1.50;0.60;;;13.80;99.90;;;;;;4991496;28;20033;-83
2021/10/30 12:35:39;;;;;;;2.53;0.60;;;13.80;99.90;;;;;;5007570;28;20041;-84
2021/10/30 12:42:00;;;;;;;2.50;0.77;;;13.80;99.90;;;;;;5025236;28;20045;-86
2021/10/30 12:44:31;;;;;;;2.30;0.80;;;13.90;99.90;;;;;;5008620;28;20030;-85
2021/10/30 12:51:09;;;;;;;2.63;0.52;;;13.90;99.90;;;;;;5028357;28;20060;-87
2021/10/30 12:53:37;;;;;;;2.38;0.70;;;14.00;99.90;;;;;;5027591;28;20034;-84
2021/10/30 12:56:04;;;;;;;2.00;0.70;;;14.10;99.90;;;;;;5011076;28;20034;-83
2021/10/30 12:58:46;;;;;;;1.88;0.70;;;14.20;99.90;;;;;;5027550;28;20057;-84
2021/10/30 13:01:35;;;;;;;2.45;0.70;;;14.20;99.90;;;;;;5011210;28;20042;-83
2021/10/30 13:04:03;;;;;;;1.90;0.60;;;14.20;99.90;;;;;;5011326;28;20034;-84
2021/10/30 13:10:33;;;;;;;1.92;0.52;;;14.30;99.90;;;;;;5028495;28;20047;-83
2021/10/30 13:13:08;;;;;;;2.10;0.60;;;14.60;99.90;;;;;;5010686;28;20079;-84
2021/10/30 13:15:33;;;;;;;2.85;0.57;;;14.60;99.90;;;;;;5011034;28;20104;-83
2021/10/30 13:21:50;;;;;;;2.65;0.70;;;14.70;99.90;;;;;;5028170;28;20477;-83
2021/10/30 13:24:16;;;;;;;1.60;0.60;;;14.70;99.90;;;;;;5010755;28;20516;-84
2021/10/30 13:30:29;;;;;;;1.25;0.50;;;14.40;99.90;;;;;;5028246;28;20044;-83
2021/10/30 13:32:54;;;;;;;1.50;0.70;;;14.40;99.90;;;;;;5010390;28;20105;-83
2021/10/30 13:35:20;;;;;;;1.80;0.60;;;14.40;99.90;;;;;;4993968;28;20025;-83
2021/10/30 13:41:33;;;;;;;2.65;0.73;;;14.40;99.90;;;;;;5027766;28;20165;-84
2021/10/30 13:44:02;;;;;;;2.40;0.88;;;14.30;99.90;;;;;;5026381;28;20193;-83
2021/10/30 13:50:16;;;;;;;2.28;0.80;;;14.30;99.90;;;;;;5027848;28;20048;-86
2021/10/30 13:52:41;;;;;;;2.92;0.75;;;14.20;99.90;;;;;;5010442;28;20038;-84